Rosemont, Nebraska
Current Conditions -  °F | °C
As of 6:53 PM on Sunday 21 Dec 2014 (Local Time) from KHSI Reporting Station
Overcast Overcast  
Wind Chill: 32°   Ceiling: 700
Heat Index: 40°   Visibility: 10mi
Dew Point: 37°   Wind: 14mph
Humidity: 89%   Direction: 160°SSE
Pressure: 29.57"   Gusts: NA
Location:  40.2644°N, 98.3887°W
Report Text: KHSI 220053Z AUTO 16012KT 10SM OVC007 04/03 A2957 RMK AO2 SLP023 T00440028
Loading
Personal Weather Stations






























Interactive Weather Map New forecast layout! Learn more

10-Day Weather Forecast

Advertisements
Track Severe Weather on mobile